Time;durP1;ratioP1;P1;durP2;ratioP2;P2;SDS_P1;SDS_P2;PMS_P1;PMS_P2;Temp;Humidity;BMP_temperature;BMP_pressure;BME280_temperature;BME280_humidity;BME280_pressure;Samples;Min_cycle;Max_cycle;Signal;HPM_P1;HPM_P2
2021/12/16 00:09:25;;;;;;;;;;;;;;;4.13;81.80;100181.30;103039;1315;97053;-72
2021/12/16 00:32:00;;;;;;;97.70;39.30;;;;;;;4.11;81.87;100171.70;103171;1317;97970;-72
2021/12/16 00:34:34;;;;;;;97.20;39.20;;;;;;;4.13;81.97;100170.77;103141;1316;107922;-72
2021/12/16 00:37:02;;;;;;;83.60;36.90;;;;;;;4.15;82.04;100173.34;103167;1315;97967;-71
2021/12/16 00:39:35;;;;;;;88.90;37.40;;;;;;;4.15;81.87;100174.23;103189;1317;96623;-71
2021/12/16 00:50:17;;;;;;;100.80;42.00;;;;;;;4.19;82.03;100172.38;103070;1315;98009;-72
2021/12/16 00:55:47;;;;;;;101.60;40.20;;;;;;;4.20;81.79;100169.70;103040;1316;111439;-72
2021/12/16 00:58:25;;;;;;;96.10;42.00;;;;;;;4.17;81.76;100171.54;103125;1315;97917;-72
2021/12/16 01:01:09;;;;;;;97.00;40.90;;;;;;;4.15;81.87;100168.26;103215;1315;107797;-72
2021/12/16 01:35:00;;;;;;;96.10;43.70;;;;;;;4.32;81.93;100142.31;103179;1316;97890;-75
2021/12/16 01:51:32;;;;;;;87.90;41.30;;;;;;;4.39;82.09;100124.39;103170;1315;112179;-72
2021/12/16 01:57:12;;;;;;;86.40;41.00;;;;;;;4.41;82.08;100119.23;103140;1316;108571;-74
2021/12/16 01:59:58;;;;;;;93.50;43.60;;;;;;;4.41;81.96;100116.92;103040;1320;95402;-73
2021/12/16 02:05:17;;;;;;;90.70;40.60;;;;;;;4.44;82.15;100108.60;103113;1316;111391;-74
2021/12/16 02:08:27;;;;;;;84.30;40.60;;;;;;;4.45;82.02;100103.64;103513;1317;97887;-73
2021/12/16 02:11:00;;;;;;;89.60;42.10;;;;;;;4.47;82.14;100104.29;103109;1315;107918;-72
2021/12/16 02:27:54;;;;;;;95.40;43.60;;;;;;;4.41;82.04;100092.88;102796;1321;98159;-72
2021/12/16 02:33:33;;;;;;;71.20;34.20;;;;;;;4.47;82.11;100089.38;103156;1316;111448;-72
2021/12/16 02:38:59;;;;;;;79.40;38.30;;;;;;;4.47;82.01;100091.30;103131;1316;107772;-73
2021/12/16 02:41:31;;;;;;;87.70;41.30;;;;;;;4.49;82.10;100083.70;103045;1316;98598;-72
2021/12/16 02:49:20;;;;;;;87.60;43.20;;;;;;;4.53;82.27;100080.75;103063;1315;97927;-73
2021/12/16 02:51:48;;;;;;;81.50;40.70;;;;;;;4.55;82.06;100080.86;103091;1316;107678;-74
2021/12/16 02:54:24;;;;;;;91.10;40.60;;;;;;;4.57;82.09;100078.67;103081;1316;97849;-73
2021/12/16 02:56:52;;;;;;;88.20;42.70;;;;;;;4.58;81.96;100076.55;103071;1315;96671;-73
2021/12/16 02:59:27;;;;;;;86.20;40.90;;;;;;;4.56;82.07;100074.81;103072;1320;111402;-74
2021/12/16 03:02:07;;;;;;;91.80;42.00;;;;;;;4.57;82.05;100074.80;103136;1315;98008;-74
2021/12/16 03:04:40;;;;;;;78.10;38.60;;;;;;;4.58;82.10;100075.48;103136;1316;106278;-73
2021/12/16 03:07:12;;;;;;;87.70;38.80;;;;;;;4.59;82.11;100069.64;103108;1316;95939;-73
2021/12/16 03:12:54;;;;;;;87.80;38.60;;;;;;;4.62;82.04;100063.25;103144;1316;111303;-73
2021/12/16 03:15:54;;;;;;;82.20;38.60;;;;;;;4.62;82.07;100063.23;103092;1315;97976;-73
2021/12/16 03:21:38;;;;;;;88.70;38.20;;;;;;;4.62;82.03;100063.92;103042;1316;96515;-73
2021/12/16 03:37:14;;;;;;;94.50;39.30;;;;;;;4.61;81.99;100064.32;103139;1315;97865;-73
2021/12/16 03:39:53;;;;;;;102.20;41.80;;;;;;;4.60;82.09;100068.73;103062;1315;111490;-74
2021/12/16 03:42:36;;;;;;;93.90;40.50;;;;;;;4.60;82.09;100073.69;103065;1315;97924;-72
2021/12/16 03:48:54;;;;;;;94.70;41.90;;;;;;;4.57;82.04;100068.99;103143;1314;98615;-72
2021/12/16 03:51:31;;;;;;;90.00;39.40;;;;;;;4.56;82.18;100067.27;103193;1316;97962;-72
2021/12/16 03:54:08;;;;;;;93.10;42.10;;;;;;;4.55;82.01;100061.33;103157;1316;112573;-73
2021/12/16 03:56:39;;;;;;;95.60;40.90;;;;;;;4.55;82.13;100063.63;103125;1319;97897;-73
2021/12/16 03:59:11;;;;;;;91.30;41.40;;;;;;;4.57;82.13;100062.86;103054;1316;107775;-72
2021/12/16 04:01:43;;;;;;;85.70;39.30;;;;;;;4.58;82.10;100058.98;103088;1316;97898;-72
2021/12/16 04:04:13;;;;;;;91.20;39.80;;;;;;;4.58;82.11;100055.45;103085;1315;97907;-72
2021/12/16 04:06:42;;;;;;;94.00;39.60;;;;;;;4.58;82.02;100059.65;103026;1317;112785;-72
2021/12/16 04:09:14;;;;;;;91.50;41.10;;;;;;;4.59;82.08;100057.72;103173;1316;98005;-72
2021/12/16 04:11:55;;;;;;;80.90;36.90;;;;;;;4.58;82.18;100059.30;103038;1315;107669;-71
2021/12/16 04:14:27;;;;;;;81.40;36.60;;;;;;;4.60;82.19;100060.84;103037;1316;97839;-71
2021/12/16 04:16:57;;;;;;;84.30;39.30;;;;;;;4.61;82.19;100059.73;103039;1315;98501;-72
2021/12/16 04:19:33;;;;;;;87.90;41.30;;;;;;;4.64;82.04;100063.89;103113;1317;111454;-72
2021/12/16 04:22:16;;;;;;;87.50;40.30;;;;;;;4.65;82.28;100061.05;103212;1316;95266;-73
2021/12/16 04:24:49;;;;;;;86.40;37.90;;;;;;;4.66;82.20;100067.16;103103;1315;107621;-74
2021/12/16 04:27:18;;;;;;;81.80;36.40;;;;;;;4.66;82.18;100064.34;103208;1315;98028;-72
2021/12/16 04:29:48;;;;;;;89.70;38.70;;;;;;;4.66;82.12;100065.77;103255;1315;97891;-73
2021/12/16 04:32:19;;;;;;;97.90;41.30;;;;;;;4.64;82.08;100062.65;103148;1316;111822;-73
2021/12/16 04:34:50;;;;;;;84.50;37.90;;;;;;;4.65;82.11;100062.96;103101;1321;97995;-72
2021/12/16 04:37:18;;;;;;;85.00;36.60;;;;;;;4.66;82.14;100065.59;103025;1316;107888;-72
2021/12/16 04:39:50;;;;;;;89.30;39.70;;;;;;;4.67;82.16;100068.54;103182;1316;98356;-72
2021/12/16 04:42:25;;;;;;;86.00;40.70;;;;;;;4.67;82.19;100067.48;103210;1316;97792;-72
2021/12/16 04:44:53;;;;;;;99.10;42.50;;;;;;;4.68;82.12;100065.70;103150;1316;111457;-74
2021/12/16 04:47:21;;;;;;;98.40;41.40;;;;;;;4.66;82.18;100061.53;103088;1316;97905;-73
2021/12/16 04:49:49;;;;;;;90.10;39.80;;;;;;;4.67;82.14;100059.77;103067;1315;107818;-73
2021/12/16 04:52:22;;;;;;;96.90;41.10;;;;;;;4.66;82.02;100058.21;103151;1316;97963;-74
2021/12/16 04:54:53;;;;;;;101.10;43.40;;;;;;;4.66;82.09;100054.52;103166;1315;97959;-74
2021/12/16 04:57:23;;;;;;;93.70;41.30;;;;;;;4.65;82.17;100054.20;103103;1316;111466;-73
2021/12/16 04:59:50;;;;;;;93.00;39.80;;;;;;;4.64;82.21;100055.27;103149;1315;95258;-74
2021/12/16 05:02:26;;;;;;;95.60;41.10;;;;;;;4.64;82.24;100056.86;103142;1315;107733;-74
2021/12/16 05:04:54;;;;;;;90.40;40.10;;;;;;;4.65;82.34;100061.04;103048;1317;98034;-75
2021/12/16 05:07:24;;;;;;;94.50;39.80;;;;;;;4.68;82.22;100061.48;103174;1315;97879;-75
2021/12/16 05:10:03;;;;;;;86.90;38.40;;;;;;;4.67;82.22;100060.79;103110;1316;111431;-75
2021/12/16 05:12:42;;;;;;;94.20;40.10;;;;;;;4.68;82.23;100064.09;103116;1316;97893;-73
2021/12/16 05:15:16;;;;;;;92.80;39.50;;;;;;;4.68;82.15;100062.69;103090;1316;108634;-74
2021/12/16 05:17:52;;;;;;;86.30;36.10;;;;;;;4.69;82.19;100065.11;103171;1316;97950;-72
2021/12/16 05:20:26;;;;;;;73.70;33.20;;;;;;;4.71;82.36;100064.88;103146;1315;97994;-71
2021/12/16 05:26:22;;;;;;;84.40;36.60;;;;;;;4.71;82.26;100062.24;103049;1316;97897;-73
2021/12/16 05:28:53;;;;;;;78.20;36.60;;;;;;;4.71;82.30;100062.77;103004;1316;107855;-74
2021/12/16 05:31:27;;;;;;;85.30;38.30;;;;;;;4.71;82.26;100067.89;103109;1316;97475;-72
2021/12/16 05:33:58;;;;;;;88.70;40.00;;;;;;;4.71;82.35;100065.95;103132;1315;99030;-73
2021/12/16 05:36:28;;;;;;;91.70;40.40;;;;;;;4.72;82.26;100074.33;103026;1321;111470;-72
2021/12/16 05:38:58;;;;;;;87.70;39.30;;;;;;;4.72;82.22;100078.55;103086;1317;98623;-73
2021/12/16 05:41:27;;;;;;;90.80;41.60;;;;;;;4.72;82.22;100078.20;103068;1316;107647;-73
2021/12/16 05:43:57;;;;;;;81.60;36.80;;;;;;;4.71;82.19;100082.96;103059;1316;95535;-74
2021/12/16 05:46:28;;;;;;;72.40;31.50;;;;;;;4.72;82.32;100086.64;103078;1316;97971;-73
2021/12/16 05:49:00;;;;;;;73.60;33.90;;;;;;;4.73;82.31;100092.59;103171;1317;111466;-74
2021/12/16 05:51:36;;;;;;;77.60;35.60;;;;;;;4.73;82.23;100091.01;103178;1316;97845;-73
2021/12/16 05:54:10;;;;;;;84.70;37.50;;;;;;;4.74;82.33;100093.95;103100;1316;109598;-73
2021/12/16 05:56:40;;;;;;;;;;;;;;;4.76;82.26;100095.47;103073;1316;95343;-73
2021/12/16 05:59:13;;;;;;;76.20;35.00;;;;;;;4.75;82.44;100095.33;103041;1317;97072;-73
2021/12/16 06:01:44;;;;;;;78.10;35.00;;;;;;;4.76;82.38;100092.98;103048;1317;111484;-73
2021/12/16 06:04:13;;;;;;;70.80;31.70;;;;;;;4.78;82.37;100094.17;103013;1316;97968;-72
2021/12/16 06:06:42;;;;;;;83.50;35.00;;;;;;;4.79;82.35;100088.00;103141;1316;107727;-74
2021/12/16 06:09:14;;;;;;;85.50;38.20;;;;;;;4.79;82.42;100090.83;103044;1317;97887;-73
2021/12/16 06:11:44;;;;;;;79.70;37.60;;;;;;;4.80;82.37;100091.33;103061;1316;95216;-72
2021/12/16 06:14:27;;;;;;;77.10;36.30;;;;;;;4.80;82.44;100089.73;103068;1316;111428;-73
2021/12/16 06:28:03;;;;;;;77.80;37.80;;;;;;;4.82;82.33;100092.98;103188;1317;111447;-73
2021/12/16 06:30:43;;;;;;;73.80;36.20;;;;;;;4.83;82.36;100092.09;103132;1316;97888;-72
2021/12/16 06:33:16;;;;;;;83.70;39.30;;;;;;;4.84;82.37;100095.91;103057;1316;107642;-73
2021/12/16 06:35:48;;;;;;;79.40;36.90;;;;;;;4.85;82.33;100099.41;103035;1316;97870;-72
2021/12/16 06:38:15;;;;;;;86.10;38.70;;;;;;;4.86;82.37;100101.15;103070;1316;98728;-73
2021/12/16 06:40:43;;;;;;;68.30;32.40;;;;;;;4.87;82.48;100098.65;103075;1316;111417;-72
2021/12/16 06:43:13;;;;;;;76.60;35.80;;;;;;;4.87;82.36;100098.98;103019;1315;97951;-77
2021/12/16 06:45:46;;;;;;;77.90;37.30;;;;;;;4.88;82.40;100096.51;103024;1316;107834;-73
2021/12/16 06:48:20;;;;;;;77.40;36.40;;;;;;;4.89;82.42;100104.02;103613;1316;97901;-73
2021/12/16 06:53:27;;;;;;;73.10;35.20;;;;;;;4.93;82.48;100107.95;103061;1317;111809;-74
2021/12/16 06:58:36;;;;;;;70.20;34.30;;;;;;;4.95;82.38;100106.46;103184;1316;107944;-71
2021/12/16 07:01:16;;;;;;;74.90;34.90;;;;;;;4.97;82.41;100109.23;103054;1317;97973;-71
2021/12/16 07:03:48;;;;;;;75.50;37.40;;;;;;;4.98;82.43;100104.95;103178;1316;97982;-71
2021/12/16 07:06:26;;;;;;;70.80;35.30;;;;;;;4.99;82.38;100102.10;103173;1320;111529;-71
2021/12/16 07:09:04;;;;;;;69.90;34.30;;;;;;;5.01;82.49;100103.45;103121;1316;95267;-72
2021/12/16 07:11:39;;;;;;;70.70;35.20;;;;;;;5.03;82.39;100104.43;103043;1316;107854;-72
2021/12/16 07:14:16;;;;;;;75.40;37.00;;;;;;;5.05;82.40;100104.39;103022;1315;96464;-73
2021/12/16 07:16:49;;;;;;;71.90;33.10;;;;;;;5.05;82.34;100105.59;103079;1316;98107;-72
2021/12/16 07:19:22;;;;;;;75.40;32.60;;;;;;;5.04;82.48;100101.94;103113;1316;111560;-76
2021/12/16 07:21:49;;;;;;;75.10;38.30;;;;;;;5.05;82.57;100096.66;103140;1316;98011;-75
2021/12/16 07:24:23;;;;;;;72.50;35.20;;;;;;;5.06;82.50;100093.45;103015;1316;107990;-75
2021/12/16 07:26:51;;;;;;;68.50;33.60;;;;;;;5.07;82.59;100095.71;103087;1316;98464;-76
2021/12/16 07:29:19;;;;;;;80.70;37.00;;;;;;;5.06;82.38;100091.52;103095;1316;97956;-78
2021/12/16 07:31:47;;;;;;;78.90;38.20;;;;;;;5.05;82.45;100093.31;103094;1316;112064;-76
2021/12/16 07:34:16;;;;;;;76.00;37.20;;;;;;;5.06;82.43;100091.87;103137;1316;95599;-76
2021/12/16 07:36:48;;;;;;;72.90;36.20;;;;;;;5.07;82.45;100097.29;103029;1316;107887;-75
2021/12/16 07:39:28;;;;;;;79.60;38.90;;;;;;;5.09;82.46;100100.02;103092;1317;97905;-77
2021/12/16 07:42:00;;;;;;;75.90;35.60;;;;;;;5.10;82.44;100097.34;103037;1316;95300;-74
2021/12/16 07:44:29;;;;;;;76.60;38.40;;;;;;;5.10;82.48;100101.57;103120;1316;109995;-76
2021/12/16 07:47:01;;;;;;;79.90;38.60;;;;;;;5.11;82.52;100105.94;102985;1316;96503;-78
2021/12/16 07:49:36;;;;;;;70.30;33.80;;;;;;;5.12;82.48;100105.55;102952;1316;107909;-75
2021/12/16 07:52:07;;;;;;;82.20;39.20;;;;;;;5.12;82.51;100100.63;104173;1316;97841;-76
2021/12/16 07:54:35;;;;;;;74.70;36.80;;;;;;;5.14;82.31;100094.42;104209;1315;97896;-77
2021/12/16 07:57:04;;;;;;;73.50;38.40;;;;;;;5.17;82.53;100099.23;104739;1316;111502;-74
2021/12/16 07:59:34;;;;;;;76.40;36.70;;;;;;;5.18;82.43;100098.83;104785;1316;95727;-75
2021/12/16 08:02:08;;;;;;;68.60;34.50;;;;;;;5.22;82.40;100107.16;103776;1317;107870;-76
2021/12/16 08:04:41;;;;;;;69.90;33.20;;;;;;;5.25;82.51;100109.52;103053;1316;98094;-75
2021/12/16 08:07:18;;;;;;;76.00;38.10;;;;;;;5.26;82.50;100106.65;103040;1316;97704;-74
2021/12/16 08:09:50;;;;;;;77.80;37.80;;;;;;;5.28;82.38;100108.73;103142;1316;111600;-75
2021/12/16 08:12:21;;;;;;;71.30;33.80;;;;;;;5.29;82.55;100116.25;103083;1316;97653;-74
2021/12/16 08:14:49;;;;;;;67.60;32.40;;;;;;;5.29;82.44;100117.84;103076;1315;107838;-75
2021/12/16 08:17:21;;;;;;;74.90;37.30;;;;;;;5.29;82.45;100122.39;103134;1315;97884;-75
2021/12/16 08:19:49;;;;;;;71.50;34.00;;;;;;;5.28;82.37;100120.48;103052;1318;97898;-76
2021/12/16 08:22:19;;;;;;;73.50;35.30;;;;;;;5.30;82.62;100119.70;103060;1316;111516;-77
2021/12/16 08:24:47;;;;;;;71.80;36.00;;;;;;;5.32;82.45;100119.14;103076;1315;97832;-76
2021/12/16 08:27:20;;;;;;;77.30;37.00;;;;;;;5.33;82.45;100118.02;103100;1316;107660;-75
2021/12/16 08:29:47;;;;;;;81.90;38.50;;;;;;;5.34;82.57;100121.49;103112;1316;98626;-76
2021/12/16 08:32:15;;;;;;;71.50;35.90;;;;;;;5.36;82.50;100121.80;103178;1317;97902;-76
2021/12/16 08:34:45;;;;;;;78.00;38.10;;;;;;;5.37;82.48;100120.02;103006;1316;111549;-75
2021/12/16 08:37:14;;;;;;;81.20;39.20;;;;;;;5.39;82.44;100120.48;103111;1320;98056;-75
2021/12/16 08:39:45;;;;;;;84.90;38.80;;;;;;;5.41;82.62;100118.66;104017;1318;107904;-75
2021/12/16 08:42:15;;;;;;;78.30;37.70;;;;;;;5.43;82.49;100121.58;103063;1319;97943;-76
2021/12/16 08:44:48;;;;;;;67.80;35.10;;;;;;;5.46;82.48;100125.18;103185;1316;96433;-76
2021/12/16 08:47:21;;;;;;;74.10;35.30;;;;;;;5.45;82.50;100126.59;103148;1316;112047;-76
2021/12/16 08:49:49;;;;;;;78.20;37.90;;;;;;;5.44;82.54;100127.17;103076;1317;97902;-76
2021/12/16 08:52:22;;;;;;;75.90;38.60;;;;;;;5.45;82.50;100126.61;103550;1316;107862;-75
2021/12/16 08:54:52;;;;;;;72.20;37.90;;;;;;;5.45;82.52;100121.14;104530;1317;96471;-76
2021/12/16 08:57:26;;;;;;;71.10;36.30;;;;;;;5.45;82.36;100122.36;104738;1317;95727;-75
2021/12/16 08:59:55;;;;;;;73.80;38.10;;;;;;;5.44;82.30;100117.85;103667;1317;111624;-75
2021/12/16 09:02:23;;;;;;;82.40;40.30;;;;;;;5.43;82.60;100122.61;103317;1317;97940;-75
2021/12/16 09:04:51;;;;;;;79.80;39.40;;;;;;;5.45;82.47;100117.80;103079;1316;107310;-75
2021/12/16 09:07:19;;;;;;;77.00;39.00;;;;;;;5.47;82.53;100116.50;103188;1316;98267;-75
2021/12/16 09:09:47;;;;;;;78.60;40.00;;;;;;;5.45;82.50;100112.89;103006;1316;98005;-77
2021/12/16 09:15:05;;;;;;;70.20;36.60;;;;;;;5.45;82.50;100105.32;103139;1315;97899;-78
2021/12/16 09:17:35;;;;;;;74.20;37.30;;;;;;;5.47;82.51;100099.08;103141;1316;107820;-79
2021/12/16 09:20:06;;;;;;;77.20;39.00;;;;;;;5.48;82.46;100098.90;103096;1316;97821;-77
2021/12/16 09:22:39;;;;;;;71.50;38.50;;;;;;;5.49;82.65;100087.42;103066;1316;98012;-77
2021/12/16 09:25:09;;;;;;;69.10;35.80;;;;;;;5.51;82.44;100085.55;103101;1316;111590;-75
2021/12/16 09:27:37;;;;;;;72.10;35.40;;;;;;;5.53;82.45;100078.83;103114;1317;98079;-76
2021/12/16 09:30:09;;;;;;;70.40;37.40;;;;;;;5.56;82.45;100079.98;103045;1315;107683;-76
2021/12/16 09:32:40;;;;;;;68.90;37.40;;;;;;;5.56;82.56;100078.54;103038;1316;98103;-75
2021/12/16 09:35:10;;;;;;;74.10;38.30;;;;;;;5.58;82.34;100077.23;103138;1315;98778;-74
2021/12/16 09:37:38;;;;;;;69.20;35.50;;;;;;;5.58;82.35;100073.36;103048;1316;111531;-74
2021/12/16 09:40:21;;;;;;;72.20;37.50;;;;;;;5.60;82.49;100076.82;103140;1315;95344;-73
2021/12/16 09:42:52;;;;;;;71.90;37.40;;;;;;;5.59;82.31;100079.66;103112;1316;107617;-76
2021/12/16 09:45:24;;;;;;;70.30;37.30;;;;;;;5.59;82.41;100078.05;103194;1316;95331;-74
2021/12/16 09:47:52;;;;;;;66.20;34.40;;;;;;;5.60;82.55;100077.67;103094;1315;97881;-76
2021/12/16 09:50:28;;;;;;;67.40;36.70;;;;;;;5.61;82.45;100078.21;103115;1316;111551;-75
2021/12/16 09:53:01;;;;;;;73.70;36.80;;;;;;;5.61;82.55;100076.08;102936;1316;97804;-76
2021/12/16 09:55:34;;;;;;;72.60;37.60;;;;;;;5.64;82.40;100067.16;103035;1316;107719;-76
2021/12/16 09:58:07;;;;;;;74.40;36.60;;;;;;;5.69;82.52;100066.99;103055;1316;97969;-75
2021/12/16 10:00:35;;;;;;;58.20;31.30;;;;;;;5.73;82.37;100058.60;103147;1316;96565;-76
2021/12/16 10:03:11;;;;;;;64.30;33.10;;;;;;;5.75;82.40;100056.55;103151;1315;111634;-77
2021/12/16 10:05:41;;;;;;;67.90;36.30;;;;;;;5.76;82.49;100052.13;103111;1313;97914;-77
2021/12/16 10:08:12;;;;;;;61.50;32.60;;;;;;;5.79;82.52;100046.75;102998;1317;108411;-76
2021/12/16 10:10:42;;;;;;;59.60;33.20;;;;;;;5.83;82.33;100044.33;103074;1315;99085;-77
2021/12/16 10:13:11;;;;;;;57.60;30.10;;;;;;;5.85;82.48;100041.60;103043;1316;95828;-76
2021/12/16 10:18:31;;;;;;;63.00;34.20;;;;;;;5.89;82.38;100043.02;103063;1320;98014;-82
2021/12/16 10:21:04;;;;;;;66.60;36.40;;;;;;;5.93;82.47;100038.47;103226;1316;107624;-79
2021/12/16 10:23:38;;;;;;;57.60;31.70;;;;;;;5.99;82.32;100031.75;103046;1315;95310;-76
2021/12/16 10:26:23;;;;;;;64.00;33.40;;;;;;;6.02;82.38;100026.73;103052;1316;95284;-76
2021/12/16 10:29:14;;;;;;;59.60;30.70;;;;;;;6.07;82.32;100025.29;103106;1316;112532;-75
2021/12/16 10:31:42;;;;;;;66.00;32.60;;;;;;;6.10;82.37;100017.59;103030;1316;97058;-75
2021/12/16 10:34:12;;;;;;;63.10;33.20;;;;;;;6.11;82.60;100018.45;103061;1315;107955;-76
2021/12/16 10:36:45;;;;;;;58.40;29.80;;;;;;;6.13;82.36;100011.52;102926;1317;95326;-76
2021/12/16 10:39:28;;;;;;;58.10;31.90;;;;;;;6.15;82.26;100010.02;103085;1315;97789;-75
2021/12/16 10:42:07;;;;;;;63.90;32.70;;;;;;;6.17;82.48;100010.65;103100;1316;111497;-76
2021/12/16 10:44:40;;;;;;;63.90;32.80;;;;;;;6.18;82.31;100014.13;102989;1316;96540;-77
2021/12/16 10:47:16;;;;;;;60.00;32.20;;;;;;;6.18;82.22;100009.57;102830;1317;143541;-78
2021/12/16 10:49:52;;;;;;;55.70;29.70;;;;;;;6.17;82.46;100007.64;103117;1316;97917;-80
2021/12/16 10:52:28;;;;;;;62.30;33.30;;;;;;;6.19;82.43;100003.52;103099;1316;97965;-76
2021/12/16 10:55:03;;;;;;;59.70;33.10;;;;;;;6.22;82.57;100009.02;103118;1317;111719;-75
2021/12/16 10:57:32;;;;;;;64.60;33.90;;;;;;;6.26;82.50;100009.08;103188;1316;98001;-75
2021/12/16 11:00:12;;;;;;;63.90;33.80;;;;;;;6.28;82.40;100007.78;102954;1316;108601;-79
2021/12/16 11:02:43;;;;;;;67.90;35.60;;;;;;;6.30;82.21;100006.98;103104;1316;96783;-73
2021/12/16 11:05:24;;;;;;;57.50;30.40;;;;;;;6.32;82.31;100001.27;103216;1316;97801;-73
2021/12/16 11:07:58;;;;;;;63.40;33.80;;;;;;;6.33;82.23;99997.14;103100;1316;111535;-73
2021/12/16 11:10:35;;;;;;;61.50;32.10;;;;;;;6.33;82.31;99990.80;103069;1317;97892;-74
2021/12/16 11:13:09;;;;;;;56.30;29.40;;;;;;;6.33;82.28;99990.45;103262;1315;108331;-76
2021/12/16 11:15:53;;;;;;;59.80;33.30;;;;;;;6.34;82.44;99994.99;103084;1316;99054;-75
2021/12/16 11:18:28;;;;;;;56.20;31.30;;;;;;;6.33;82.58;99991.52;103112;1315;98005;-75
2021/12/16 11:21:09;;;;;;;61.90;31.80;;;;;;;6.32;82.42;99984.85;102955;1317;111689;-74
2021/12/16 11:23:43;;;;;;;61.00;30.20;;;;;;;6.33;82.12;99974.44;103183;1316;98973;-76
2021/12/16 11:26:17;;;;;;;;;;;;;;;6.34;82.31;99967.89;103199;1317;108897;-75
2021/12/16 11:28:48;;;;;;;;;;;;;;;6.35;82.14;99966.77;102994;1322;98107;-74
2021/12/16 11:31:32;;;;;;;57.30;29.90;;;;;;;6.37;82.40;99966.52;103066;1316;98034;-74
2021/12/16 11:34:10;;;;;;;54.70;30.10;;;;;;;6.40;82.29;99963.06;102980;1318;111393;-74
2021/12/16 11:36:45;;;;;;;58.20;30.10;;;;;;;6.43;82.20;99961.86;103142;1314;97961;-73
2021/12/16 11:39:29;;;;;;;57.30;30.20;;;;;;;6.48;82.22;99961.50;103144;1316;107604;-74
2021/12/16 11:42:03;;;;;;;54.10;29.50;;;;;;;6.51;82.25;99958.58;103108;1316;98633;-74
2021/12/16 11:44:39;;;;;;;57.50;29.80;;;;;;;6.51;81.96;99962.08;103098;1316;95332;-73
2021/12/16 11:47:27;;;;;;;55.60;27.80;;;;;;;6.49;82.13;99968.84;103133;1315;110902;-73
2021/12/16 11:50:03;;;;;;;57.20;31.50;;;;;;;6.48;82.23;99971.90;103100;1316;98040;-73
2021/12/16 11:52:41;;;;;;;52.60;25.80;;;;;;;6.47;82.17;99970.86;103097;1317;108819;-72
2021/12/16 11:55:17;;;;;;;58.70;31.50;;;;;;;6.45;82.11;99972.70;103145;1316;95952;-74
2021/12/16 11:58:00;;;;;;;52.60;28.10;;;;;;;6.44;82.20;99966.24;103138;1320;97915;-74
2021/12/16 12:00:40;;;;;;;58.50;31.40;;;;;;;6.44;82.18;99966.77;103164;1315;113450;-73
2021/12/16 12:03:14;;;;;;;50.70;28.40;;;;;;;6.45;82.15;99960.77;103116;1316;97119;-73
2021/12/16 12:05:48;;;;;;;56.60;30.70;;;;;;;6.46;82.23;99959.65;103082;1315;108911;-73
2021/12/16 12:08:26;;;;;;;56.50;30.10;;;;;;;6.43;82.19;99958.33;103096;1315;98061;-76
2021/12/16 12:11:19;;;;;;;55.10;30.10;;;;;;;6.43;82.26;99957.48;103140;1315;97965;-73
2021/12/16 12:13:56;;;;;;;57.10;32.10;;;;;;;6.43;82.07;99955.52;103094;1315;111477;-73
2021/12/16 12:16:34;;;;;;;54.00;31.60;;;;;;;6.44;82.04;99959.92;103137;1316;97966;-73
2021/12/16 12:19:14;;;;;;;61.80;32.40;;;;;;;6.45;82.28;99953.36;103090;1316;107803;-74
2021/12/16 12:22:00;;;;;;;59.20;31.50;;;;;;;6.48;82.28;99942.81;103121;1315;97905;-73
2021/12/16 12:24:44;;;;;;;53.30;29.60;;;;;;;6.52;81.87;99946.17;103100;1315;95197;-73
2021/12/16 12:27:15;;;;;;;61.20;33.90;;;;;;;6.59;82.10;99947.84;103136;1316;111530;-75
2021/12/16 12:29:45;;;;;;;60.50;34.70;;;;;;;6.60;82.03;99958.90;103202;1315;97666;-74
2021/12/16 12:32:37;;;;;;;56.30;33.10;;;;;;;6.58;81.97;99960.73;103083;1316;108306;-73
2021/12/16 12:35:14;;;;;;;58.70;32.80;;;;;;;6.55;82.24;99966.30;103075;1316;97983;-74
2021/12/16 12:37:55;;;;;;;55.90;33.10;;;;;;;6.53;81.87;99971.32;103162;1316;97980;-72
2021/12/16 12:40:37;;;;;;;62.00;35.00;;;;;;;6.53;82.08;99970.28;103116;1315;111285;-73
2021/12/16 12:43:10;;;;;;;59.60;32.80;;;;;;;6.52;82.07;99965.73;103118;1316;97926;-73
2021/12/16 12:45:44;;;;;;;;;;;;;;;6.51;81.91;99969.14;103092;1315;107690;-73
2021/12/16 12:48:19;;;;;;;65.40;37.70;;;;;;;6.48;82.02;99964.86;103088;1316;98351;-72
2021/12/16 12:50:50;;;;;;;65.00;36.50;;;;;;;6.46;82.12;99968.45;103139;1315;97911;-73
2021/12/16 12:53:38;;;;;;;69.90;38.70;;;;;;;6.44;81.96;99969.95;103120;1315;111537;-74
2021/12/16 12:56:17;;;;;;;69.60;39.80;;;;;;;6.38;82.03;99974.03;102984;1318;95842;-74
2021/12/16 12:59:04;;;;;;;73.30;40.80;;;;;;;6.35;81.95;99970.11;103118;1316;107774;-72
2021/12/16 13:01:53;;;;;;;69.30;40.00;;;;;;;6.34;82.06;99968.41;103134;1315;95334;-74
2021/12/16 13:04:31;;;;;;;69.00;41.00;;;;;;;6.32;81.79;99960.75;103102;1315;97928;-74
2021/12/16 13:07:04;;;;;;;69.80;38.80;;;;;;;6.30;81.82;99958.91;102978;1319;111591;-73
2021/12/16 13:09:48;;;;;;;72.60;39.40;;;;;;;6.29;81.65;99952.39;103117;1317;98027;-73
2021/12/16 13:12:27;;;;;;;63.20;36.80;;;;;;;6.26;81.78;99949.88;103111;1315;107886;-73
2021/12/16 13:15:27;;;;;;;71.90;39.10;;;;;;;6.24;81.76;99950.14;103104;1315;98012;-74
2021/12/16 13:26:45;;;;;;;59.40;33.20;;;;;;;6.14;81.87;99951.41;103076;1315;107753;-76
2021/12/16 13:32:38;;;;;;;52.80;28.40;;;;;;;6.08;81.98;99954.13;102882;1319;98083;-73
2021/12/16 13:37:57;;;;;;;50.40;28.80;;;;;;;6.01;81.76;99938.52;103117;1315;98618;-74
2021/12/16 13:40:37;;;;;;;70.00;39.30;;;;;;;5.99;81.71;99926.98;103101;1315;107835;-73
2021/12/16 13:43:23;;;;;;;52.70;30.00;;;;;;;5.96;81.79;99925.34;103110;1316;97883;-75
2021/12/16 14:03:45;;;;;;;60.00;33.50;;;;;;;5.94;81.92;99951.27;103123;1315;111550;-74
2021/12/16 14:06:58;;;;;;;63.00;37.60;;;;;;;5.93;81.77;99951.47;103181;1316;98298;-73
2021/12/16 14:09:35;;;;;;;65.10;36.30;;;;;;;5.94;81.76;99952.50;103111;1315;107733;-75
2021/12/16 14:13:25;;;;;;;73.60;39.20;;;;;;;5.92;81.80;99944.83;103099;1315;98716;-74
2021/12/16 14:18:03;;;;;;;64.10;35.60;;;;;;;5.93;81.82;99934.09;103110;1316;110119;-74
2021/12/16 14:24:41;;;;;;;56.10;31.40;;;;;;;5.93;81.79;99895.86;103134;1315;108619;-74
2021/12/16 14:40:09;;;;;;;52.10;30.10;;;;;;;5.99;81.87;99899.86;103087;1316;98024;-73
2021/12/16 14:48:21;;;;;;;;;;;;;;;6.01;81.76;99940.13;103148;1316;97902;-75
2021/12/16 14:51:07;;;;;;;57.70;33.20;;;;;;;5.99;82.01;99938.08;103132;1316;108024;-74
2021/12/16 14:53:44;;;;;;;65.90;34.00;;;;;;;6.00;81.99;99940.33;103153;1320;98296;-73
2021/12/16 14:56:20;;;;;;;59.30;33.60;;;;;;;6.01;81.79;99942.77;103091;1315;98344;-74
2021/12/16 14:58:56;;;;;;;63.90;36.80;;;;;;;6.02;81.87;99946.63;103090;1315;111537;-73
2021/12/16 15:01:36;;;;;;;56.60;32.80;;;;;;;6.03;81.95;99951.34;103186;1316;98017;-73
2021/12/16 15:04:11;;;;;;;57.40;34.20;;;;;;;6.03;81.95;99951.69;103196;1316;107855;-72
2021/12/16 15:07:05;;;;;;;61.00;34.40;;;;;;;6.04;82.01;99947.58;103084;1316;97982;-73
2021/12/16 15:09:40;;;;;;;63.00;35.50;;;;;;;6.05;81.93;99949.67;103155;1315;97071;-73
2021/12/16 15:12:23;;;;;;;53.20;27.90;;;;;;;6.05;81.77;99948.45;103114;1319;111482;-73
2021/12/16 15:38:20;;;;;;;60.00;32.80;;;;;;;6.03;82.05;99950.45;102993;1319;97969;-73
2021/12/16 15:42:46;;;;;;;55.00;30.90;;;;;;;6.02;81.95;99955.58;103079;1315;111403;-74
2021/12/16 15:43:52;;;;;;;51.40;29.80;;;;;;;6.01;81.81;99945.93;102944;1317;97963;-74
2021/12/16 15:46:32;;;;;;;48.20;27.50;;;;;;;6.03;81.98;99948.52;102987;1319;107816;-76
2021/12/16 15:49:04;;;;;;;49.50;28.30;;;;;;;6.04;81.92;99948.98;103129;1316;97980;-75